CCA1866 ZGGG-ZSPD
Flight info
| Callsign | CCA1866 |
|---|---|
| Flight time | N/A |
| Altitude | 37100 |
| Route | LMN9 LMN G471 XEBUL ODOPI AKAVO UPNUG W76 AREPI B221 SHZ W58 XSY |
| Aircraft | B77W/H-SDE1E2E3FGHIJ2J3J4J5M1RWXY/LB1D1 |
Departure
| Time | 2026-05-07 05:03 |
|---|---|
| Airport | Guangzhou Baiyun International Airport (ZGGG) |
Arrival
| Time | N/A |
|---|---|
| Airport | Shanghai Pudong International Airport (ZSPD) |
| Time | Latitude | Longitude | Altitude | Speed | Heading |
|---|---|---|---|---|---|
| 2026-05-07 04:28 | 23.37039 | 113.31352 | 58 ft | 0 kts | 123° |
| 2026-05-07 04:45 | 23.37040 | 113.31352 | 59 ft | 0 kts | 123° |
| 2026-05-07 04:45 | 23.37047 | 113.31339 | 59 ft | 2 kts | 123° |
| 2026-05-07 04:45 | 23.37055 | 113.31325 | 58 ft | 2 kts | 123° |
| 2026-05-07 04:46 | 23.37063 | 113.31313 | 58 ft | 2 kts | 123° |
| 2026-05-07 04:46 | 23.37072 | 113.31299 | 58 ft | 2 kts | 123° |
| 2026-05-07 04:46 | 23.37080 | 113.31285 | 58 ft | 2 kts | 124° |
| 2026-05-07 04:46 | 23.37090 | 113.31274 | 58 ft | 2 kts | 156° |
| 2026-05-07 04:47 | 23.37104 | 113.31271 | 58 ft | 2 kts | 185° |
| 2026-05-07 04:47 | 23.37119 | 113.31274 | 58 ft | 2 kts | 197° |
| 2026-05-07 04:47 | 23.37134 | 113.31279 | 58 ft | 2 kts | 193° |
| 2026-05-07 04:47 | 23.37148 | 113.31282 | 58 ft | 2 kts | 192° |
| 2026-05-07 04:48 | 23.37154 | 113.31284 | 58 ft | 0 kts | 192° |
| 2026-05-07 04:51 | 23.37153 | 113.31284 | 58 ft | 0 kts | 192° |
| 2026-05-07 04:54 | 23.37152 | 113.31283 | 58 ft | 1 kts | 191° |
| 2026-05-07 04:54 | 23.37105 | 113.31271 | 58 ft | 10 kts | 197° |
| 2026-05-07 04:55 | 23.37047 | 113.31226 | 58 ft | 10 kts | 227° |
| 2026-05-07 04:55 | 23.36996 | 113.31165 | 58 ft | 11 kts | 226° |
| 2026-05-07 04:55 | 23.36928 | 113.31127 | 58 ft | 12 kts | 195° |
| 2026-05-07 04:55 | 23.36811 | 113.31095 | 58 ft | 20 kts | 194° |
| 2026-05-07 04:56 | 23.36681 | 113.31058 | 58 ft | 17 kts | 193° |
| 2026-05-07 04:56 | 23.36567 | 113.31029 | 58 ft | 16 kts | 192° |
| 2026-05-07 04:56 | 23.36481 | 113.30990 | 58 ft | 9 kts | 255° |
| 2026-05-07 04:56 | 23.36473 | 113.30932 | 58 ft | 7 kts | 226° |
| 2026-05-07 04:57 | 23.36392 | 113.30905 | 58 ft | 17 kts | 194° |
| 2026-05-07 04:57 | 23.36282 | 113.30875 | 58 ft | 15 kts | 194° |
| 2026-05-07 04:57 | 23.36177 | 113.30846 | 58 ft | 14 kts | 194° |
| 2026-05-07 04:57 | 23.36078 | 113.30821 | 58 ft | 15 kts | 193° |
| 2026-05-07 04:58 | 23.35984 | 113.30820 | 58 ft | 12 kts | 136° |
| 2026-05-07 04:58 | 23.35955 | 113.30885 | 58 ft | 11 kts | 102° |
| 2026-05-07 04:58 | 23.35934 | 113.30980 | 58 ft | 12 kts | 104° |
| 2026-05-07 04:58 | 23.35895 | 113.31149 | 58 ft | 28 kts | 104° |
| 2026-05-07 04:59 | 23.35858 | 113.31313 | 58 ft | 27 kts | 104° |
| 2026-05-07 04:59 | 23.35806 | 113.31538 | 59 ft | 25 kts | 104° |
| 2026-05-07 04:59 | 23.35769 | 113.31703 | 59 ft | 17 kts | 103° |
| 2026-05-07 04:59 | 23.35746 | 113.31786 | 59 ft | 6 kts | 131° |
| 2026-05-07 05:00 | 23.35700 | 113.31796 | 59 ft | 7 kts | 183° |
| 2026-05-07 05:00 | 23.35643 | 113.31786 | 59 ft | 10 kts | 193° |
| 2026-05-07 05:00 | 23.35569 | 113.31766 | 59 ft | 10 kts | 191° |
| 2026-05-07 05:00 | 23.35523 | 113.31795 | 59 ft | 1 kts | 113° |
| 2026-05-07 05:01 | 23.35522 | 113.31795 | 59 ft | 0 kts | 112° |
| 2026-05-07 05:01 | 23.35522 | 113.31798 | 59 ft | 1 kts | 112° |
| 2026-05-07 05:02 | 23.35509 | 113.31834 | 59 ft | 8 kts | 105° |
| 2026-05-07 05:02 | 23.35494 | 113.31907 | 59 ft | 8 kts | 89° |
| 2026-05-07 05:02 | 23.35507 | 113.31925 | 59 ft | 0 kts | 13° |
| 2026-05-07 05:02 | 23.35523 | 113.31930 | 59 ft | 7 kts | 13° |
| 2026-05-07 05:03 | 23.35718 | 113.31981 | 59 ft | 63 kts | 14° |
| 2026-05-07 05:03 | 23.36368 | 113.32159 | 59 ft | 132 kts | 14° |
| 2026-05-07 05:03 | 23.37439 | 113.32449 | 199 ft | 176 kts | 15° |
| 2026-05-07 05:03 | 23.38667 | 113.32777 | 686 ft | 191 kts | 14° |
| 2026-05-07 05:04 | 23.40008 | 113.32989 | 1470 ft | 198 kts | 12° |
| 2026-05-07 05:04 | 23.41333 | 113.33521 | 2098 ft | 214 kts | 33° |
| 2026-05-07 05:04 | 23.42543 | 113.34580 | 2670 ft | 234 kts | 45° |
| 2026-05-07 05:04 | 23.43736 | 113.35881 | 3386 ft | 251 kts | 47° |
| 2026-05-07 05:05 | 23.44964 | 113.37270 | 4276 ft | 260 kts | 47° |
| 2026-05-07 05:05 | 23.46233 | 113.38706 | 5137 ft | 273 kts | 46° |
| 2026-05-07 05:05 | 23.47564 | 113.40208 | 5998 ft | 285 kts | 45° |
| 2026-05-07 05:05 | 23.48947 | 113.41769 | 7014 ft | 290 kts | 45° |
| 2026-05-07 05:06 | 23.50308 | 113.43397 | 7973 ft | 296 kts | 54° |
| 2026-05-07 05:06 | 23.51178 | 113.45445 | 8900 ft | 303 kts | 71° |
| 2026-05-07 05:06 | 23.51751 | 113.47659 | 9818 ft | 310 kts | 75° |
| 2026-05-07 05:06 | 23.52293 | 113.49941 | 10695 ft | 319 kts | 75° |
| 2026-05-07 05:07 | 23.52867 | 113.52336 | 11335 ft | 337 kts | 75° |
| 2026-05-07 05:07 | 23.53475 | 113.54848 | 12006 ft | 353 kts | 75° |
| 2026-05-07 05:07 | 23.54103 | 113.57503 | 12669 ft | 369 kts | 75° |
| 2026-05-07 05:07 | 23.54745 | 113.60304 | 13332 ft | 385 kts | 75° |
| 2026-05-07 05:08 | 23.55402 | 113.63163 | 13985 ft | 400 kts | 75° |
| 2026-05-07 05:08 | 23.56095 | 113.66179 | 14620 ft | 415 kts | 76° |
| 2026-05-07 05:08 | 23.56726 | 113.69269 | 15193 ft | 430 kts | 81° |
| 2026-05-07 05:08 | 23.57163 | 113.72530 | 15924 ft | 439 kts | 82° |
| 2026-05-07 05:09 | 23.57582 | 113.75835 | 16798 ft | 444 kts | 82° |
| 2026-05-07 05:09 | 23.58008 | 113.79199 | 17672 ft | 448 kts | 82° |
| 2026-05-07 05:09 | 23.58431 | 113.82541 | 18431 ft | 455 kts | 82° |
| 2026-05-07 05:09 | 23.58869 | 113.85992 | 19141 ft | 462 kts | 82° |
| 2026-05-07 05:10 | 23.59306 | 113.89442 | 19855 ft | 469 kts | 82° |
| 2026-05-07 05:10 | 23.59757 | 113.93002 | 20576 ft | 475 kts | 82° |
| 2026-05-07 05:10 | 23.60207 | 113.96563 | 21367 ft | 478 kts | 82° |
| 2026-05-07 05:10 | 23.60660 | 114.00146 | 22131 ft | 481 kts | 82° |
| 2026-05-07 05:11 | 23.61120 | 114.03792 | 22750 ft | 488 kts | 81° |
| 2026-05-07 05:11 | 23.61580 | 114.07446 | 23442 ft | 493 kts | 81° |
| 2026-05-07 05:11 | 23.62049 | 114.11178 | 24153 ft | 497 kts | 81° |
| 2026-05-07 05:11 | 23.62527 | 114.14906 | 24826 ft | 501 kts | 81° |
| 2026-05-07 05:12 | 23.63015 | 114.18648 | 25429 ft | 507 kts | 81° |
| 2026-05-07 05:12 | 23.63521 | 114.22481 | 26010 ft | 513 kts | 79° |
| 2026-05-07 05:12 | 23.64364 | 114.26279 | 26650 ft | 516 kts | 70° |
| 2026-05-07 05:12 | 23.65722 | 114.29913 | 27301 ft | 518 kts | 61° |
| 2026-05-07 05:13 | 23.67537 | 114.33285 | 27896 ft | 520 kts | 52° |
| 2026-05-07 05:13 | 23.69792 | 114.36356 | 28459 ft | 522 kts | 44° |
| 2026-05-07 05:13 | 23.72479 | 114.39077 | 29049 ft | 522 kts | 35° |
| 2026-05-07 05:13 | 23.75357 | 114.41460 | 29754 ft | 523 kts | 33° |
| 2026-05-07 05:14 | 23.78283 | 114.43824 | 30748 ft | 518 kts | 33° |
| 2026-05-07 05:14 | 23.81111 | 114.46116 | 31901 ft | 509 kts | 33° |
| 2026-05-07 05:14 | 23.83919 | 114.48401 | 32955 ft | 501 kts | 32° |
| 2026-05-07 05:14 | 23.86713 | 114.50679 | 33859 ft | 498 kts | 32° |
| 2026-05-07 05:15 | 23.89481 | 114.52943 | 34600 ft | 497 kts | 32° |
| 2026-05-07 05:15 | 23.92233 | 114.55197 | 35319 ft | 496 kts | 32° |
| 2026-05-07 05:15 | 23.95012 | 114.57478 | 36072 ft | 493 kts | 31° |
| 2026-05-07 05:15 | 23.97777 | 114.59752 | 36779 ft | 491 kts | 31° |
| 2026-05-07 05:16 | 24.00524 | 114.62011 | 37059 ft | 494 kts | 31° |
| 2026-05-07 05:16 | 24.03291 | 114.64289 | 37058 ft | 494 kts | 31° |
| 2026-05-07 05:16 | 24.08802 | 114.68835 | 37042 ft | 496 kts | 31° |
| 2026-05-07 05:17 | 24.14344 | 114.73415 | 37046 ft | 493 kts | 31° |
| 2026-05-07 05:17 | 24.19816 | 114.77942 | 37045 ft | 492 kts | 31° |
| 2026-05-07 05:18 | 24.24024 | 114.81426 | 37047 ft | 493 kts | 31° |